Time;durP1;ratioP1;P1;durP2;ratioP2;P2;SDS_P1;SDS_P2;PMS_P1;PMS_P2;Temp;Humidity;BMP_temperature;BMP_pressure;BME280_temperature;BME280_humidity;BME280_pressure;Samples;Min_cycle;Max_cycle;Signal;HPM_P1;HPM_P2
2022/06/22 00:00:40;;;;;;;0.00;0.00;;;19.30;99.90;;;;;;5053794;28;20020;-73
2022/06/22 00:03:09;;;;;;;0.20;0.20;;;19.50;99.90;;;;;;5053351;28;20171;-74
2022/06/22 00:05:54;;;;;;;0.10;0.10;;;19.50;99.90;;;;;;5036039;28;20052;-74
2022/06/22 00:08:25;;;;;;;0.10;0.10;;;19.60;99.90;;;;;;5053336;28;20021;-73
2022/06/22 00:11:02;;;;;;;0.00;0.00;;;19.80;99.90;;;;;;5035835;28;20043;-74
2022/06/22 00:13:31;;;;;;;0.17;0.17;;;19.90;99.90;;;;;;5053695;28;20025;-74
2022/06/22 00:16:14;;;;;;;0.00;0.00;;;19.90;99.90;;;;;;5053464;28;20488;-74
2022/06/22 00:18:46;;;;;;;0.10;0.10;;;19.70;99.90;;;;;;5035370;28;20047;-74
2022/06/22 00:21:24;;;;;;;0.10;0.10;;;19.70;99.90;;;;;;5053579;28;20029;-74
2022/06/22 00:23:52;;;;;;;0.00;0.00;;;19.60;99.90;;;;;;5053288;28;20017;-74
2022/06/22 00:26:24;;;;;;;0.10;0.10;;;19.70;99.90;;;;;;5053116;28;20500;-74
2022/06/22 00:29:15;;;;;;;0.20;0.20;;;19.90;99.90;;;;;;5035261;28;20025;-74
2022/06/22 00:31:56;;;;;;;0.03;0.03;;;19.90;99.90;;;;;;5053270;28;20082;-74
2022/06/22 00:34:26;;;;;;;0.10;0.10;;;19.80;99.90;;;;;;5034785;28;20062;-73
2022/06/22 00:37:00;;;;;;;0.00;0.00;;;19.60;99.90;;;;;;5018758;28;20033;-74
2022/06/22 00:39:28;;;;;;;0.10;0.10;;;19.60;99.90;;;;;;5035228;28;20025;-74
2022/06/22 00:41:58;;;;;;;0.00;0.00;;;19.60;99.90;;;;;;5053305;28;20017;-73
2022/06/22 00:44:28;;;;;;;0.10;0.10;;;19.50;99.90;;;;;;5034908;28;20029;-74
2022/06/22 00:47:10;;;;;;;1.00;1.00;;;19.70;99.90;;;;;;5052595;28;20397;-74
2022/06/22 00:49:42;;;;;;;0.10;0.10;;;19.80;99.90;;;;;;5052558;28;20029;-75
2022/06/22 00:52:08;;;;;;;0.08;0.08;;;19.80;99.90;;;;;;5052739;28;20083;-74
2022/06/22 00:54:36;;;;;;;0.10;0.10;;;19.90;99.90;;;;;;5052653;28;20035;-74
2022/06/22 00:57:19;;;;;;;0.10;0.10;;;20.10;99.90;;;;;;5052408;28;20472;-74
2022/06/22 01:00:03;;;;;;;0.10;0.10;;;19.90;99.90;;;;;;5052468;28;20033;-74
2022/06/22 01:02:53;;;;;;;0.10;0.10;;;19.90;99.90;;;;;;5034678;28;20160;-75
2022/06/22 01:05:25;;;;;;;0.10;0.10;;;19.90;99.90;;;;;;5034612;28;20025;-74
2022/06/22 01:08:17;;;;;;;0.03;0.03;;;20.00;99.90;;;;;;5018176;28;20031;-74
2022/06/22 01:11:01;;;;;;;0.00;0.00;;;19.80;99.90;;;;;;5018310;28;20028;-74
2022/06/22 01:13:42;;;;;;;0.10;0.10;;;19.80;99.90;;;;;;5052424;28;20994;-74
2022/06/22 01:16:19;;;;;;;0.10;0.10;;;19.80;99.90;;;;;;5052348;28;20021;-74
2022/06/22 01:18:53;;;;;;;0.00;0.00;;;19.80;99.90;;;;;;5034163;28;20396;-74
2022/06/22 01:21:21;;;;;;;0.10;0.10;;;19.80;99.90;;;;;;5034432;28;20049;-74
2022/06/22 01:24:08;;;;;;;0.08;0.08;;;20.10;99.90;;;;;;5052475;28;20021;-74
2022/06/22 01:26:37;;;;;;;0.10;0.10;;;20.20;99.90;;;;;;5052011;28;20422;-74
2022/06/22 01:29:24;;;;;;;0.10;0.10;;;20.30;99.90;;;;;;5052076;28;20025;-74
2022/06/22 01:31:55;;;;;;;0.10;0.10;;;20.40;99.90;;;;;;5017925;28;20033;-74
2022/06/22 01:34:24;;;;;;;0.00;0.00;;;20.20;99.90;;;;;;5052223;28;20471;-74
2022/06/22 01:36:50;;;;;;;0.03;0.03;;;19.90;99.90;;;;;;5034060;28;20039;-74
2022/06/22 01:39:16;;;;;;;0.00;0.00;;;19.60;99.90;;;;;;5051917;28;20034;-74
2022/06/22 01:42:15;;;;;;;0.00;0.00;;;19.60;99.90;;;;;;5034052;28;20036;-74
2022/06/22 01:44:59;;;;;;;0.10;0.10;;;19.60;99.90;;;;;;5020565;28;20041;-74
2022/06/22 01:47:30;;;;;;;0.00;0.00;;;19.60;99.90;;;;;;5033877;28;20025;-74
2022/06/22 01:50:22;;;;;;;0.10;0.10;;;19.60;99.90;;;;;;5051930;28;20403;-73
2022/06/22 01:52:49;;;;;;;0.00;0.00;;;19.70;99.90;;;;;;5034301;28;20071;-74
2022/06/22 01:55:29;;;;;;;0.00;0.00;;;19.80;99.90;;;;;;5017658;28;20035;-74
2022/06/22 01:58:13;;;;;;;0.10;0.10;;;19.80;99.90;;;;;;5034171;28;20035;-74
2022/06/22 02:00:40;;;;;;;0.10;0.10;;;19.70;99.90;;;;;;5052005;28;20501;-74
2022/06/22 02:03:26;;;;;;;0.08;0.08;;;19.50;99.90;;;;;;5034074;28;20028;-74
2022/06/22 02:09:07;;;;;;;0.50;0.50;;;19.30;99.90;;;;;;5051920;28;20021;-74
2022/06/22 02:11:39;;;;;;;0.00;0.00;;;19.20;99.90;;;;;;5034136;28;20483;-74
2022/06/22 02:14:25;;;;;;;0.68;0.68;;;19.30;99.90;;;;;;5034322;28;20484;-74
2022/06/22 02:16:59;;;;;;;0.10;0.10;;;19.30;99.90;;;;;;5017458;28;20029;-73
2022/06/22 02:19:29;;;;;;;0.00;0.00;;;19.40;99.90;;;;;;5033848;28;20068;-74
2022/06/22 02:21:58;;;;;;;0.00;0.00;;;19.50;99.90;;;;;;5017696;28;20495;-74
2022/06/22 02:24:38;;;;;;;0.08;0.08;;;19.60;99.90;;;;;;5034011;28;20032;-74
2022/06/22 02:27:10;;;;;;;0.00;0.00;;;19.70;99.90;;;;;;5051484;28;20017;-73
2022/06/22 02:29:47;;;;;;;0.00;0.00;;;19.80;99.90;;;;;;5051651;28;20025;-74
2022/06/22 02:32:20;;;;;;;0.10;0.10;;;19.80;99.90;;;;;;5052017;28;20132;-74
2022/06/22 02:34:51;;;;;;;0.10;0.10;;;19.70;99.90;;;;;;5052004;28;20541;-74
2022/06/22 02:37:19;;;;;;;0.07;0.07;;;19.70;99.90;;;;;;5017265;28;20424;-73
2022/06/22 02:39:48;;;;;;;0.00;0.00;;;19.80;99.90;;;;;;5051411;28;20079;-74
2022/06/22 02:45:00;;;;;;;0.00;0.00;;;19.70;99.90;;;;;;5051563;28;20055;-74
2022/06/22 02:47:29;;;;;;;0.10;0.10;;;19.80;99.90;;;;;;5051227;28;20024;-74
2022/06/22 02:50:03;;;;;;;0.10;0.10;;;19.60;99.90;;;;;;5033477;28;20041;-73
2022/06/22 02:52:49;;;;;;;1.55;1.45;;;19.70;99.90;;;;;;5051419;28;20497;-74
2022/06/22 02:55:22;;;;;;;0.00;0.00;;;19.60;99.90;;;;;;5051481;28;20021;-74
2022/06/22 02:57:51;;;;;;;0.10;0.10;;;19.50;99.90;;;;;;5053593;28;20547;-74
2022/06/22 03:00:25;;;;;;;0.10;0.10;;;19.50;99.90;;;;;;5037054;28;20017;-74
2022/06/22 03:02:55;;;;;;;0.05;0.05;;;19.60;99.90;;;;;;5020154;28;20055;-74
2022/06/22 03:05:22;;;;;;;0.10;0.10;;;19.80;99.90;;;;;;5054943;28;20143;-74
2022/06/22 03:07:51;;;;;;;0.10;0.10;;;19.80;99.90;;;;;;5054461;28;20024;-74
2022/06/22 03:10:28;;;;;;;0.10;0.10;;;19.70;99.90;;;;;;5054654;28;20021;-74
2022/06/22 03:12:56;;;;;;;0.00;0.00;;;19.70;99.90;;;;;;5036987;28;20032;-74
2022/06/22 03:15:25;;;;;;;0.20;0.20;;;19.70;99.90;;;;;;5054495;28;20110;-74
2022/06/22 03:17:51;;;;;;;0.00;0.00;;;19.60;99.90;;;;;;5036618;28;20477;-75
2022/06/22 03:20:24;;;;;;;0.10;0.10;;;19.70;99.90;;;;;;5020076;28;20036;-74
2022/06/22 03:22:57;;;;;;;0.08;0.08;;;19.70;99.90;;;;;;5054533;28;20025;-74
2022/06/22 03:25:47;;;;;;;0.08;0.08;;;19.70;99.90;;;;;;5036655;28;20025;-74
2022/06/22 03:28:23;;;;;;;0.10;0.10;;;19.60;99.90;;;;;;5036442;28;20028;-74
2022/06/22 03:30:55;;;;;;;0.10;0.10;;;19.70;99.90;;;;;;5054429;28;20354;-74
2022/06/22 03:33:30;;;;;;;0.10;0.10;;;19.80;99.90;;;;;;5036646;28;20025;-74
2022/06/22 03:36:01;;;;;;;0.10;0.10;;;19.90;99.90;;;;;;5019988;28;20031;-74
2022/06/22 03:38:38;;;;;;;0.10;0.10;;;19.80;99.90;;;;;;5053863;28;20595;-74
2022/06/22 03:41:21;;;;;;;0.05;0.05;;;19.70;99.90;;;;;;5054216;28;20388;-74
2022/06/22 03:44:08;;;;;;;1.00;0.20;;;19.70;99.90;;;;;;5019718;28;20017;-74
2022/06/22 03:46:40;;;;;;;0.10;0.10;;;19.70;99.90;;;;;;5053760;28;20053;-74
2022/06/22 03:49:29;;;;;;;0.00;0.00;;;19.70;99.90;;;;;;5030080;23;20546;-77
2022/06/22 03:52:01;;;;;;;0.00;0.00;;;19.80;99.90;;;;;;5016380;28;20061;-77
2022/06/22 03:54:48;;;;;;;0.10;0.10;;;19.80;99.90;;;;;;5016411;28;20025;-76
2022/06/22 03:57:18;;;;;;;0.57;0.55;;;19.80;99.90;;;;;;5034021;28;20021;-76
2022/06/22 03:59:46;;;;;;;0.10;0.10;;;19.60;99.90;;;;;;5033861;28;20025;-76
2022/06/22 04:02:12;;;;;;;0.20;0.20;;;19.30;99.90;;;;;;5016124;28;20021;-76
2022/06/22 04:04:38;;;;;;;0.47;0.47;;;19.20;99.90;;;;;;5016037;28;20025;-76
2022/06/22 04:07:05;;;;;;;0.10;0.10;;;19.20;99.90;;;;;;5033682;28;20017;-76
2022/06/22 04:09:32;;;;;;;0.10;0.10;;;19.40;99.90;;;;;;5032708;28;20026;-76
2022/06/22 04:12:04;;;;;;;0.00;0.00;;;19.40;99.90;;;;;;5033623;28;20056;-76
2022/06/22 04:14:38;;;;;;;0.00;0.00;;;19.50;99.90;;;;;;5033572;28;20025;-75
2022/06/22 04:17:22;;;;;;;0.10;0.10;;;19.70;99.90;;;;;;5015613;28;20029;-76
2022/06/22 04:20:01;;;;;;;0.28;0.28;;;19.60;99.90;;;;;;5033276;28;20026;-76
2022/06/22 04:22:28;;;;;;;2.72;1.65;;;19.50;99.90;;;;;;5015812;28;20108;-76
2022/06/22 04:25:01;;;;;;;0.10;0.10;;;19.30;99.90;;;;;;5028872;23;20513;-76
2022/06/22 04:27:38;;;;;;;2.28;2.17;;;19.10;99.90;;;;;;5079443;22;20069;-75
2022/06/22 04:30:12;;;;;;;0.10;0.10;;;19.00;99.90;;;;;;5061957;22;20045;-73
2022/06/22 04:33:04;;;;;;;2.28;0.47;;;19.10;99.90;;;;;;5053044;28;20387;-72
2022/06/22 04:35:57;;;;;;;0.10;0.10;;;19.10;99.90;;;;;;5053135;28;20017;-73
2022/06/22 04:38:28;;;;;;;0.10;0.10;;;19.10;99.90;;;;;;5052844;28;20043;-73
2022/06/22 04:40:58;;;;;;;;;;;19.10;99.90;;;;;;5053185;28;20050;-73
2022/06/22 04:43:24;;;;;;;0.10;0.10;;;19.20;99.90;;;;;;5018459;28;19974;-73
2022/06/22 04:45:51;;;;;;;0.60;0.40;;;19.30;99.90;;;;;;5034924;28;20025;-73
2022/06/22 04:48:20;;;;;;;0.10;0.10;;;19.50;99.90;;;;;;5034773;28;20480;-71
2022/06/22 04:50:49;;;;;;;0.20;0.20;;;19.40;99.90;;;;;;5052839;28;20021;-71
2022/06/22 04:53:30;;;;;;;0.13;0.13;;;19.30;99.90;;;;;;5052732;28;20389;-73
2022/06/22 04:56:00;;;;;;;0.10;0.10;;;19.30;99.90;;;;;;5052691;28;20029;-73
2022/06/22 04:58:32;;;;;;;0.28;0.28;;;19.20;99.90;;;;;;5052589;28;20108;-73
2022/06/22 05:01:00;;;;;;;0.10;0.10;;;19.30;99.90;;;;;;5052467;28;20504;-73
2022/06/22 05:03:27;;;;;;;0.00;0.00;;;19.30;99.90;;;;;;5052561;28;20029;-73
2022/06/22 05:05:56;;;;;;;0.10;0.10;;;19.30;99.90;;;;;;5034511;28;20070;-73
2022/06/22 05:08:27;;;;;;;0.10;0.10;;;19.50;99.90;;;;;;5052368;28;20020;-73
2022/06/22 05:10:55;;;;;;;4.47;2.63;;;19.70;99.90;;;;;;5034454;28;20023;-72
2022/06/22 05:13:26;;;;;;;0.10;0.10;;;19.80;99.90;;;;;;5052382;28;20052;-73
2022/06/22 05:15:55;;;;;;;0.10;0.10;;;19.90;99.90;;;;;;5034698;28;20073;-73
2022/06/22 05:18:25;;;;;;;0.10;0.10;;;19.90;99.90;;;;;;5034076;28;20036;-71
2022/06/22 05:21:04;;;;;;;0.00;0.00;;;19.80;99.90;;;;;;5052002;28;20075;-71
2022/06/22 05:23:31;;;;;;;4.88;2.85;;;19.80;99.90;;;;;;5034442;28;20472;-73
2022/06/22 05:26:03;;;;;;;0.10;0.10;;;19.90;99.90;;;;;;5034102;28;20110;-73
2022/06/22 05:28:39;;;;;;;1.98;1.40;;;19.80;99.90;;;;;;5034389;28;20064;-73
2022/06/22 05:31:29;;;;;;;0.35;0.35;;;19.80;99.90;;;;;;5034238;28;20037;-73
2022/06/22 05:34:00;;;;;;;0.20;0.17;;;19.80;99.90;;;;;;5051931;28;20100;-73
2022/06/22 05:36:29;;;;;;;0.32;0.32;;;19.90;99.90;;;;;;5051864;28;20028;-75
2022/06/22 05:38:57;;;;;;;0.10;0.10;;;19.90;99.90;;;;;;5067114;28;20028;-74
2022/06/22 05:41:30;;;;;;;0.05;0.05;;;19.90;99.90;;;;;;5053716;28;20044;-74
2022/06/22 05:44:06;;;;;;;0.10;0.10;;;20.00;99.90;;;;;;5062576;28;20033;-74
2022/06/22 05:46:32;;;;;;;0.10;0.10;;;20.20;99.90;;;;;;5051700;28;20022;-75
2022/06/22 05:48:58;;;;;;;0.13;0.13;;;20.30;99.90;;;;;;5051523;28;20021;-74
2022/06/22 05:51:57;;;;;;;0.00;0.00;;;20.50;99.90;;;;;;5033940;28;20164;-75
2022/06/22 05:54:44;;;;;;;0.00;0.00;;;20.60;99.90;;;;;;5036260;28;20048;-74
2022/06/22 05:57:36;;;;;;;0.00;0.00;;;20.90;99.90;;;;;;5071692;28;20031;-74
2022/06/22 06:00:28;;;;;;;6.05;1.13;;;21.30;99.90;;;;;;5053475;28;20040;-74
2022/06/22 06:03:05;;;;;;;0.10;0.10;;;21.50;99.90;;;;;;5071844;28;20056;-73
2022/06/22 06:05:45;;;;;;;0.05;0.05;;;21.60;99.90;;;;;;5053784;28;20029;-75
2022/06/22 06:08:34;;;;;;;0.10;0.10;;;21.60;99.90;;;;;;5036948;28;20025;-75
2022/06/22 06:11:00;;;;;;;0.00;0.00;;;21.60;99.90;;;;;;5071754;28;20063;-75
2022/06/22 06:13:38;;;;;;;0.10;0.10;;;21.70;99.90;;;;;;5037015;28;20036;-73
2022/06/22 06:16:12;;;;;;;0.00;0.00;;;21.70;99.90;;;;;;5054011;28;20029;-74
2022/06/22 06:18:40;;;;;;;0.00;0.00;;;21.90;99.90;;;;;;5071759;28;20017;-73
2022/06/22 06:21:10;;;;;;;0.10;0.10;;;22.10;99.90;;;;;;5073267;28;20024;-74
2022/06/22 06:23:45;;;;;;;0.00;0.00;;;22.20;99.90;;;;;;5054349;28;20025;-73
2022/06/22 06:29:32;;;;;;;0.05;0.05;;;22.20;99.90;;;;;;5072169;28;20403;-72
2022/06/22 06:32:25;;;;;;;0.10;0.10;;;22.20;99.90;;;;;;5023287;28;20119;-72
2022/06/22 06:34:59;;;;;;;2.13;1.08;;;22.20;99.90;;;;;;5076352;28;20024;-73
2022/06/22 06:37:34;;;;;;;0.00;0.00;;;21.90;99.90;;;;;;5075304;28;20047;-73
2022/06/22 06:40:01;;;;;;;0.10;0.10;;;21.90;99.90;;;;;;5057961;28;20043;-73
2022/06/22 06:42:38;;;;;;;0.10;0.10;;;21.90;99.90;;;;;;5057876;28;20391;-75
2022/06/22 06:45:13;;;;;;;0.10;0.10;;;22.00;99.90;;;;;;5075685;28;20021;-75
2022/06/22 06:47:43;;;;;;;0.00;0.00;;;22.10;99.90;;;;;;5064560;28;20020;-74
2022/06/22 06:50:26;;;;;;;0.00;0.00;;;22.10;99.90;;;;;;5072346;28;20139;-74
2022/06/22 06:53:28;;;;;;;0.00;0.00;;;22.00;99.90;;;;;;5054821;28;20033;-74
2022/06/22 06:56:32;;;;;;;0.20;0.20;;;21.90;99.90;;;;;;5070185;28;20504;-73
2022/06/22 06:59:04;;;;;;;4.53;2.42;;;21.70;99.90;;;;;;5052041;28;20062;-74
2022/06/22 07:01:35;;;;;;;0.10;0.10;;;21.60;99.90;;;;;;5074889;28;20278;-74
2022/06/22 07:04:15;;;;;;;0.10;0.10;;;21.70;99.90;;;;;;5039756;28;20025;-74
2022/06/22 07:06:41;;;;;;;0.00;0.00;;;21.90;99.90;;;;;;5054693;28;20045;-73
2022/06/22 07:09:16;;;;;;;0.00;0.00;;;22.00;99.90;;;;;;5036539;28;20056;-74
2022/06/22 07:11:51;;;;;;;0.00;0.00;;;22.10;99.90;;;;;;5054473;28;20049;-74
2022/06/22 07:14:29;;;;;;;0.05;0.05;;;22.10;99.90;;;;;;5036332;28;20071;-74
2022/06/22 07:16:59;;;;;;;0.10;0.10;;;22.00;99.90;;;;;;5054433;28;20083;-73
2022/06/22 07:19:34;;;;;;;0.00;0.00;;;22.10;99.90;;;;;;5020674;28;20507;-74
2022/06/22 07:22:39;;;;;;;10.68;0.40;;;22.00;99.90;;;;;;5037714;28;20121;-74
2022/06/22 07:25:41;;;;;;;0.10;0.10;;;22.10;99.90;;;;;;5033563;28;20027;-73
2022/06/22 07:28:31;;;;;;;3.45;0.40;;;22.00;99.90;;;;;;5028166;28;20124;-73
2022/06/22 07:31:11;;;;;;;0.20;0.20;;;22.00;99.90;;;;;;5033915;28;20080;-74
2022/06/22 07:33:48;;;;;;;0.20;0.20;;;21.90;99.90;;;;;;5032914;28;20029;-74
2022/06/22 07:36:20;;;;;;;1.90;1.02;;;21.80;99.90;;;;;;5034042;28;20108;-73
2022/06/22 07:38:56;;;;;;;;;;;21.70;99.90;;;;;;5016419;28;20112;-73
2022/06/22 07:41:23;;;;;;;0.03;0.03;;;21.60;99.90;;;;;;5033890;28;19909;-74
2022/06/22 07:43:57;;;;;;;1.08;0.57;;;21.50;99.90;;;;;;5033873;28;20059;-73
2022/06/22 07:46:58;;;;;;;3.50;2.08;;;21.40;99.90;;;;;;5039117;28;20009;-74
2022/06/22 07:49:42;;;;;;;0.40;0.40;;;21.40;99.90;;;;;;5053613;28;20560;-74
2022/06/22 07:52:23;;;;;;;1.27;0.45;;;21.60;99.90;;;;;;5035576;28;20113;-73
2022/06/22 07:55:00;;;;;;;9.02;1.70;;;21.60;99.90;;;;;;5053309;28;20059;-74
2022/06/22 07:57:28;;;;;;;0.10;0.10;;;21.50;99.90;;;;;;5053142;28;20108;-74
2022/06/22 08:00:10;;;;;;;6.75;1.15;;;21.60;99.90;;;;;;5035431;28;20053;-74
2022/06/22 08:02:46;;;;;;;17.02;15.38;;;21.80;99.90;;;;;;5035924;28;20027;-74
2022/06/22 08:05:17;;;;;;;1.20;0.35;;;21.90;99.90;;;;;;5035622;28;20033;-73
2022/06/22 08:07:50;;;;;;;0.00;0.00;;;22.00;99.90;;;;;;5035400;28;20017;-72
2022/06/22 08:10:38;;;;;;;0.10;0.10;;;22.10;99.90;;;;;;5035185;28;20059;-71
2022/06/22 08:13:22;;;;;;;0.10;0.10;;;22.30;99.90;;;;;;5053266;28;20036;-73
2022/06/22 08:16:09;;;;;;;0.00;0.00;;;22.40;99.90;;;;;;5035396;28;20096;-73
2022/06/22 08:18:36;;;;;;;1.38;0.70;;;22.30;99.90;;;;;;5035098;28;20075;-73
2022/06/22 08:21:02;;;;;;;0.30;0.25;;;22.20;99.90;;;;;;5034602;28;20431;-73
2022/06/22 08:23:32;;;;;;;0.08;0.08;;;22.10;99.90;;;;;;5053061;28;20472;-72
2022/06/22 08:26:00;;;;;;;0.00;0.00;;;22.00;99.90;;;;;;5052213;28;20460;-73
2022/06/22 08:28:29;;;;;;;0.00;0.00;;;22.10;99.90;;;;;;5047043;28;20032;-72
2022/06/22 08:30:56;;;;;;;1.13;0.50;;;22.20;99.90;;;;;;5054872;28;20051;-73
2022/06/22 08:33:40;;;;;;;0.10;0.10;;;22.30;99.90;;;;;;5072889;28;20086;-73
2022/06/22 08:36:31;;;;;;;0.10;0.10;;;22.40;99.90;;;;;;5054679;28;20048;-72
2022/06/22 08:39:42;;;;;;;0.00;0.00;;;22.30;99.90;;;;;;5062113;28;20025;-72
2022/06/22 08:42:23;;;;;;;1.58;0.80;;;22.20;99.90;;;;;;5034898;28;20441;-72
2022/06/22 08:45:13;;;;;;;0.10;0.10;;;22.10;99.90;;;;;;5018439;28;20052;-72
2022/06/22 08:47:46;;;;;;;0.08;0.08;;;22.00;99.90;;;;;;5052613;28;20055;-72
2022/06/22 08:50:33;;;;;;;0.10;0.10;;;21.90;99.90;;;;;;5052383;28;20017;-72
2022/06/22 08:53:17;;;;;;;0.10;0.10;;;22.00;99.90;;;;;;5052360;28;20058;-72
2022/06/22 08:56:39;;;;;;;0.43;0.20;;;22.20;99.90;;;;;;5033943;28;20431;-72
2022/06/22 08:59:04;;;;;;;3.50;0.63;;;22.20;99.90;;;;;;5020368;28;20059;-72
2022/06/22 09:01:58;;;;;;;3.35;1.98;;;22.20;99.90;;;;;;5034299;28;20029;-72
2022/06/22 09:04:27;;;;;;;0.08;0.08;;;22.20;99.90;;;;;;5034456;28;20101;-72
2022/06/22 09:07:12;;;;;;;0.10;0.10;;;22.10;99.90;;;;;;5051802;28;20028;-72
2022/06/22 09:09:55;;;;;;;0.68;0.68;;;22.00;99.90;;;;;;5001343;28;20037;-72
2022/06/22 09:12:42;;;;;;;0.00;0.00;;;22.00;99.90;;;;;;5034584;28;20021;-73
2022/06/22 09:15:30;;;;;;;0.13;0.10;;;22.10;99.90;;;;;;5052411;28;20381;-73
2022/06/22 09:18:13;;;;;;;0.70;0.28;;;22.20;99.90;;;;;;5052278;28;20074;-73
2022/06/22 09:20:53;;;;;;;0.10;0.10;;;22.30;99.90;;;;;;5052183;28;20032;-73
2022/06/22 09:23:28;;;;;;;0.00;0.00;;;22.30;99.90;;;;;;5052132;28;20401;-73
2022/06/22 09:26:15;;;;;;;0.45;0.45;;;22.20;99.90;;;;;;5052154;28;20037;-73
2022/06/22 09:28:55;;;;;;;4.50;3.42;;;22.30;99.90;;;;;;5052001;28;20033;-73
2022/06/22 09:31:41;;;;;;;0.15;0.15;;;22.20;99.90;;;;;;5052367;28;20047;-73
2022/06/22 09:34:25;;;;;;;0.25;0.25;;;22.20;99.90;;;;;;5051916;28;20021;-72
2022/06/22 09:37:19;;;;;;;0.10;0.10;;;22.10;99.90;;;;;;5052167;28;20127;-72
2022/06/22 09:40:10;;;;;;;0.10;0.10;;;22.10;99.90;;;;;;5033963;28;20059;-72
2022/06/22 09:42:45;;;;;;;0.05;0.05;;;22.30;99.90;;;;;;5034073;28;20024;-72
2022/06/22 09:45:35;;;;;;;0.00;0.00;;;22.60;99.90;;;;;;5034093;28;20027;-73
2022/06/22 09:48:19;;;;;;;0.10;0.10;;;23.00;99.90;;;;;;5033963;28;20396;-72
2022/06/22 09:51:09;;;;;;;0.00;0.00;;;23.30;99.90;;;;;;5034045;28;20027;-72
2022/06/22 09:53:47;;;;;;;0.10;0.10;;;23.60;99.90;;;;;;5051908;28;20094;-73
2022/06/22 09:56:35;;;;;;;0.05;0.05;;;24.00;99.90;;;;;;5121878;22;20056;-74
2022/06/22 09:59:25;;;;;;;1.08;0.40;;;24.20;99.90;;;;;;5033484;28;20133;-74
2022/06/22 10:02:16;;;;;;;10.60;2.15;;;24.20;99.90;;;;;;5051654;28;20060;-76
2022/06/22 10:05:19;;;;;;;0.00;0.00;;;24.20;99.90;;;;;;5033749;28;20025;-74
2022/06/22 10:07:56;;;;;;;0.00;0.00;;;23.80;99.90;;;;;;5036218;28;20028;-74
2022/06/22 10:10:40;;;;;;;0.00;0.00;;;24.00;99.90;;;;;;5037714;28;20396;-74
2022/06/22 10:13:17;;;;;;;0.00;0.00;;;24.10;99.90;;;;;;5055059;28;20040;-75
2022/06/22 10:15:56;;;;;;;0.00;0.00;;;24.20;99.90;;;;;;5055656;28;20040;-75
2022/06/22 10:18:52;;;;;;;0.28;0.28;;;24.30;99.90;;;;;;5070845;28;20078;-74
2022/06/22 10:21:42;;;;;;;0.00;0.00;;;24.20;99.90;;;;;;5071533;28;20024;-74
2022/06/22 10:24:29;;;;;;;0.00;0.00;;;24.00;99.90;;;;;;5037442;28;20120;-74
2022/06/22 10:27:26;;;;;;;0.40;0.30;;;24.10;99.90;;;;;;5020820;28;20112;-74
2022/06/22 10:30:06;;;;;;;0.30;0.30;;;24.10;99.90;;;;;;5036759;28;20187;-74
2022/06/22 10:32:59;;;;;;;0.00;0.00;;;24.20;99.90;;;;;;5037256;28;20122;-74
2022/06/22 10:35:24;;;;;;;0.00;0.00;;;24.20;99.90;;;;;;5036943;28;20025;-74
2022/06/22 10:37:59;;;;;;;0.00;0.00;;;24.20;99.90;;;;;;5037062;28;20048;-74
2022/06/22 10:47:44;;;;;;;0.10;0.10;;;23.90;99.90;;;;;;4999458;28;20477;-74
2022/06/22 10:50:38;;;;;;;0.03;0.03;;;24.00;99.90;;;;;;4995695;28;20404;-74
2022/06/22 10:53:22;;;;;;;1.30;1.25;;;24.00;99.90;;;;;;5054657;28;20028;-74
2022/06/22 10:56:14;;;;;;;5.38;1.65;;;23.90;99.90;;;;;;5054505;28;20365;-74
2022/06/22 10:58:48;;;;;;;0.00;0.00;;;23.90;99.90;;;;;;5036579;28;20021;-74
2022/06/22 11:02:00;;;;;;;0.13;0.13;;;24.00;99.90;;;;;;5054582;28;20033;-74
2022/06/22 11:04:50;;;;;;;0.00;0.00;;;23.80;99.90;;;;;;5036626;28;20111;-74
2022/06/22 11:07:50;;;;;;;0.10;0.10;;;23.60;99.90;;;;;;5004658;28;20080;-74
2022/06/22 11:10:44;;;;;;;0.30;0.30;;;23.60;99.90;;;;;;5054381;28;20025;-72
2022/06/22 11:13:48;;;;;;;0.00;0.00;;;23.60;99.90;;;;;;5019703;28;20029;-71
2022/06/22 11:16:16;;;;;;;0.88;0.77;;;23.80;99.90;;;;;;5036311;28;20345;-72
2022/06/22 11:19:13;;;;;;;0.00;0.00;;;24.00;99.90;;;;;;5035542;28;20104;-72
2022/06/22 11:22:00;;;;;;;0.10;0.10;;;23.80;99.90;;;;;;5054185;28;20017;-72
2022/06/22 11:24:55;;;;;;;0.00;0.00;;;23.90;99.90;;;;;;5053966;28;20029;-73
2022/06/22 11:30:57;;;;;;;;;;;24.00;99.90;;;;;;5054219;28;20029;-73
2022/06/22 11:33:37;;;;;;;0.00;0.00;;;24.00;99.90;;;;;;5036150;28;19904;-73
2022/06/22 11:36:33;;;;;;;0.00;0.00;;;24.00;99.90;;;;;;5035832;28;20025;-73
2022/06/22 11:39:37;;;;;;;0.00;0.00;;;24.00;99.90;;;;;;5035840;28;20025;-73
2022/06/22 11:42:14;;;;;;;0.10;0.10;;;24.10;99.90;;;;;;5040692;28;20107;-72
2022/06/22 11:48:30;;;;;;;0.00;0.00;;;24.10;99.90;;;;;;5037679;28;20054;-73
2022/06/22 11:51:29;;;;;;;0.00;0.00;;;24.20;99.90;;;;;;5073587;28;20029;-73
2022/06/22 11:54:01;;;;;;;0.00;0.00;;;24.20;99.90;;;;;;5073941;28;20021;-72
2022/06/22 11:56:44;;;;;;;0.98;0.20;;;24.10;99.90;;;;;;5070412;28;20041;-72
2022/06/22 11:59:19;;;;;;;0.20;0.20;;;24.20;99.90;;;;;;5035109;28;20028;-73
2022/06/22 12:02:18;;;;;;;1.45;0.63;;;24.30;99.90;;;;;;5034398;28;20021;-72
2022/06/22 12:05:18;;;;;;;0.90;0.90;;;24.20;99.90;;;;;;5051870;28;20029;-73
2022/06/22 12:08:12;;;;;;;0.10;0.10;;;24.00;99.90;;;;;;5053305;28;20025;-73
2022/06/22 12:10:40;;;;;;;0.00;0.00;;;23.90;99.90;;;;;;5035690;28;20095;-73
2022/06/22 12:13:12;;;;;;;1.75;0.75;;;23.90;99.90;;;;;;5053262;28;20549;-72
2022/06/22 12:15:50;;;;;;;2.85;1.45;;;23.80;99.90;;;;;;5035348;28;20028;-72
2022/06/22 12:18:30;;;;;;;6.13;5.57;;;23.50;99.90;;;;;;5053223;28;20078;-72
2022/06/22 12:21:24;;;;;;;1.13;1.10;;;23.50;99.90;;;;;;5035150;28;20071;-72
2022/06/22 12:23:53;;;;;;;0.00;0.00;;;23.50;99.90;;;;;;5018855;28;20485;-72
2022/06/22 12:26:37;;;;;;;1.63;0.38;;;23.50;99.90;;;;;;5035229;28;20112;-72
2022/06/22 12:29:16;;;;;;;0.47;0.47;;;23.40;99.90;;;;;;5052226;28;20033;-72
2022/06/22 12:31:47;;;;;;;0.65;0.65;;;23.50;99.90;;;;;;5052908;28;20025;-72
2022/06/22 12:34:33;;;;;;;0.00;0.00;;;23.50;99.90;;;;;;5053078;28;20025;-72
2022/06/22 12:37:08;;;;;;;1.35;0.63;;;23.50;99.90;;;;;;5052787;28;20439;-72
2022/06/22 12:39:42;;;;;;;0.00;0.00;;;23.50;99.90;;;;;;5052633;28;20383;-72
2022/06/22 12:42:33;;;;;;;0.00;0.00;;;23.50;99.90;;;;;;5052661;28;20029;-72
2022/06/22 12:45:08;;;;;;;0.00;0.00;;;23.50;99.90;;;;;;5052454;28;20059;-72
2022/06/22 12:48:06;;;;;;;0.10;0.10;;;23.70;99.90;;;;;;5034501;28;20036;-72
2022/06/22 12:50:50;;;;;;;0.00;0.00;;;23.50;99.90;;;;;;5013442;28;20040;-73
2022/06/22 12:53:25;;;;;;;23.40;2.60;;;23.60;99.90;;;;;;5052487;28;20056;-72
2022/06/22 12:56:16;;;;;;;0.22;0.22;;;23.50;99.90;;;;;;5052342;28;20032;-71
2022/06/22 12:58:52;;;;;;;0.00;0.00;;;23.50;99.90;;;;;;5052285;28;20052;-73
2022/06/22 13:01:18;;;;;;;0.00;0.00;;;23.50;99.90;;;;;;5052722;28;20021;-72
2022/06/22 13:03:50;;;;;;;7.18;3.00;;;23.50;99.90;;;;;;5033921;28;20108;-73
2022/06/22 13:06:16;;;;;;;0.20;0.10;;;23.50;99.90;;;;;;5031606;28;20018;-72
2022/06/22 13:08:43;;;;;;;5.45;1.40;;;23.30;99.90;;;;;;5013353;28;20033;-73
2022/06/22 13:11:16;;;;;;;6.28;0.57;;;23.00;99.90;;;;;;5032271;28;20021;-72
2022/06/22 13:14:10;;;;;;;0.20;0.20;;;22.80;99.90;;;;;;5032445;28;20072;-72
2022/06/22 13:17:02;;;;;;;4.85;0.55;;;22.90;99.90;;;;;;4987332;28;20626;-73
2022/06/22 13:19:55;;;;;;;13.15;0.43;;;23.10;99.90;;;;;;5032164;28;20389;-73
2022/06/22 13:22:48;;;;;;;0.10;0.10;;;23.20;99.90;;;;;;5032411;28;20091;-72
2022/06/22 13:25:32;;;;;;;0.10;0.10;;;23.50;99.90;;;;;;5032319;28;20049;-73
2022/06/22 13:28:10;;;;;;;0.00;0.00;;;23.80;99.90;;;;;;5034463;28;20033;-73
2022/06/22 13:30:44;;;;;;;0.20;0.20;;;24.00;99.90;;;;;;5065554;28;20028;-73
2022/06/22 13:33:24;;;;;;;0.30;0.30;;;24.20;99.90;;;;;;5071943;28;20033;-72
2022/06/22 13:36:10;;;;;;;0.82;0.75;;;24.20;99.90;;;;;;5071886;28;20480;-71
2022/06/22 13:39:01;;;;;;;0.20;0.20;;;24.30;99.90;;;;;;5031608;28;20607;-72
2022/06/22 13:41:42;;;;;;;4.53;4.07;;;24.50;99.90;;;;;;5032099;28;20108;-71
2022/06/22 13:44:33;;;;;;;0.85;0.55;;;24.50;99.90;;;;;;5032228;28;20025;-71
2022/06/22 13:47:20;;;;;;;0.00;0.00;;;24.70;99.90;;;;;;5031883;28;20079;-71
2022/06/22 13:50:19;;;;;;;0.00;0.00;;;24.90;99.90;;;;;;5030886;28;20484;-71
2022/06/22 13:52:47;;;;;;;0.00;0.00;;;24.80;99.90;;;;;;5031616;28;20025;-72
2022/06/22 13:55:40;;;;;;;0.00;0.00;;;24.90;99.90;;;;;;5031460;28;20029;-72
2022/06/22 13:58:12;;;;;;;0.10;0.10;;;24.80;99.90;;;;;;5031306;28;20479;-72
2022/06/22 14:01:04;;;;;;;0.28;0.28;;;24.80;99.90;;;;;;5013495;28;20021;-73
2022/06/22 14:03:36;;;;;;;0.00;0.00;;;24.70;99.90;;;;;;5030390;28;20512;-74
2022/06/22 14:06:10;;;;;;;;;;;24.60;99.90;;;;;;5032099;28;20033;-73
2022/06/22 14:08:43;;;;;;;0.20;0.20;;;24.50;99.90;;;;;;5031366;28;19912;-73
2022/06/22 14:11:22;;;;;;;0.00;0.00;;;24.40;99.90;;;;;;5031728;28;20076;-74